createdAt,value
2017-11-23T00:00:10.069Z,9.60
2017-11-23T00:00:45.674Z,11.90
2017-11-23T00:01:21.095Z,9.70
2017-11-23T00:01:56.377Z,9.20
2017-11-23T00:02:31.589Z,10.10
2017-11-23T00:03:06.860Z,8.50
2017-11-23T00:03:42.269Z,11.50
2017-11-23T00:04:17.450Z,15.00
2017-11-23T00:04:52.759Z,11.10
2017-11-23T00:05:28.159Z,9.00
2017-11-23T00:06:03.562Z,11.30
2017-11-23T00:06:38.941Z,9.60
2017-11-23T00:07:14.249Z,9.10
2017-11-23T00:07:49.620Z,9.10
2017-11-23T00:08:25.136Z,9.20
2017-11-23T00:09:00.415Z,11.30
2017-11-23T00:09:35.821Z,14.00
2017-11-23T00:10:10.995Z,9.60
2017-11-23T00:10:46.245Z,9.90
2017-11-23T00:11:21.521Z,10.30
2017-11-23T00:11:56.829Z,11.00
2017-11-23T00:12:31.702Z,9.60
2017-11-23T00:13:07.241Z,10.90
2017-11-23T00:13:42.926Z,12.00
2017-11-23T00:14:18.332Z,9.00
2017-11-23T00:14:53.811Z,8.50
2017-11-23T00:15:29.345Z,9.70
2017-11-23T00:16:04.730Z,11.10
2017-11-23T00:16:39.932Z,11.30
2017-11-23T00:17:15.128Z,10.10
2017-11-23T00:17:50.441Z,9.40
2017-11-23T00:18:25.716Z,9.00
2017-11-23T00:19:01.120Z,12.60
2017-11-23T00:19:36.595Z,11.90
2017-11-23T00:20:12.146Z,8.80
2017-11-23T00:20:47.448Z,9.10
2017-11-23T00:21:22.749Z,11.60
2017-11-23T00:21:58.032Z,11.10
2017-11-23T00:22:33.030Z,12.80
2017-11-23T00:23:08.111Z,12.10
2017-11-23T00:23:43.518Z,10.30
2017-11-23T00:24:18.796Z,10.10
2017-11-23T00:24:54.101Z,10.70
2017-11-23T00:25:29.285Z,12.10
2017-11-23T00:26:04.614Z,10.90
2017-11-23T00:26:39.787Z,9.40
2017-11-23T00:27:15.099Z,9.80
2017-11-23T00:27:50.190Z,11.80
2017-11-23T00:28:25.599Z,10.50
2017-11-23T00:29:01.081Z,9.00
2017-11-23T00:29:36.690Z,10.50
2017-11-23T00:30:11.868Z,10.90
2017-11-23T00:30:47.101Z,8.90
2017-11-23T00:31:22.479Z,8.20
2017-11-23T00:31:57.789Z,10.20
2017-11-23T00:32:33.072Z,10.40
2017-11-23T00:33:08.073Z,9.10
2017-11-23T00:33:43.454Z,8.80
2017-11-23T00:34:18.862Z,9.40
2017-11-23T00:34:54.041Z,11.30
2017-11-23T00:35:29.156Z,10.80
2017-11-23T00:36:04.373Z,11.70
2017-11-23T00:36:39.675Z,10.60
2017-11-23T00:37:15.153Z,11.20
2017-11-23T00:37:50.360Z,9.90
2017-11-23T00:38:25.740Z,12.90
2017-11-23T00:39:01.246Z,15.10
2017-11-23T00:39:36.725Z,11.40
2017-11-23T00:40:12.233Z,8.90
2017-11-23T00:40:47.540Z,12.50
2017-11-23T00:41:22.749Z,11.60
2017-11-23T00:41:58.126Z,8.70
2017-11-23T00:42:33.438Z,7.60
2017-11-23T00:43:08.615Z,9.50
2017-11-23T00:43:44.047Z,11.80
2017-11-23T00:44:19.598Z,10.60
2017-11-23T00:44:54.705Z,9.90
2017-11-23T00:45:29.685Z,11.10
2017-11-23T00:46:04.920Z,11.50
2017-11-23T00:46:40.305Z,11.30
2017-11-23T00:47:15.412Z,8.80
2017-11-23T00:47:50.389Z,8.20
2017-11-23T00:48:25.493Z,8.40
2017-11-23T00:49:00.878Z,10.30
2017-11-23T00:49:36.287Z,11.10
2017-11-23T00:50:11.877Z,10.00
2017-11-23T00:50:47.075Z,9.90
2017-11-23T00:51:22.472Z,10.20
2017-11-23T00:51:58.095Z,9.80
2017-11-23T00:52:33.772Z,8.50
2017-11-23T00:53:09.085Z,7.60
2017-11-23T00:53:44.457Z,7.50
2017-11-23T00:54:19.676Z,8.80
2017-11-23T00:54:55.049Z,11.30
2017-11-23T00:55:30.153Z,7.70
2017-11-23T00:56:05.366Z,9.10
2017-11-23T00:56:40.481Z,7.90
2017-11-23T00:57:16.151Z,8.60
2017-11-23T00:57:51.160Z,13.60
2017-11-23T00:58:26.444Z,10.20
2017-11-23T00:59:02.148Z,10.70
2017-11-23T00:59:37.729Z,11.00
2017-11-23T01:00:13.146Z,10.50
2017-11-23T01:00:48.422Z,14.70
2017-11-23T01:01:23.750Z,11.90
2017-11-23T01:01:58.929Z,9.50
2017-11-23T01:02:34.337Z,8.80
2017-11-23T01:03:09.621Z,12.50
2017-11-23T01:03:45.231Z,13.50
2017-11-23T01:04:20.202Z,12.20
2017-11-23T01:04:55.320Z,11.70
2017-11-23T01:05:30.394Z,10.30
2017-11-23T01:06:05.736Z,11.80
2017-11-23T01:06:41.410Z,11.90
2017-11-23T01:07:16.613Z,10.50
2017-11-23T01:07:51.820Z,8.90
2017-11-23T01:08:27.019Z,10.00
2017-11-23T01:09:02.100Z,9.20
2017-11-23T01:09:37.400Z,9.60
2017-11-23T01:10:12.982Z,11.10
2017-11-23T01:10:48.191Z,11.30
2017-11-23T01:11:23.604Z,10.40
2017-11-23T01:11:58.601Z,10.40
2017-11-23T01:12:33.681Z,10.70
2017-11-23T01:13:09.205Z,11.50
2017-11-23T01:13:44.265Z,12.60
2017-11-23T01:14:19.473Z,8.90
2017-11-23T01:14:54.651Z,7.60
2017-11-23T01:15:29.767Z,10.30
2017-11-23T01:16:05.041Z,9.80
2017-11-23T01:16:40.470Z,7.90
2017-11-23T01:17:15.851Z,8.20
2017-11-23T01:17:51.259Z,7.60
2017-11-23T01:18:26.536Z,8.90
2017-11-23T01:19:01.845Z,8.70
2017-11-23T01:19:36.827Z,8.50
2017-11-23T01:20:12.240Z,7.30
2017-11-23T01:20:47.620Z,10.90
2017-11-23T01:21:23.153Z,8.40
2017-11-23T01:21:58.835Z,6.20
2017-11-23T01:22:34.238Z,8.40
2017-11-23T01:23:09.719Z,9.80
2017-11-23T01:23:45.127Z,10.70
2017-11-23T01:24:20.205Z,10.30
2017-11-23T01:24:55.318Z,13.40
2017-11-23T01:25:30.493Z,16.60
2017-11-23T01:26:05.706Z,11.30
2017-11-23T01:26:40.917Z,8.60
2017-11-23T01:27:16.214Z,8.70
2017-11-23T01:27:51.193Z,7.80
2017-11-23T01:28:26.193Z,9.00
2017-11-23T01:29:01.271Z,10.70
2017-11-23T01:29:37.483Z,9.60
2017-11-23T01:30:12.667Z,7.90
2017-11-23T01:30:47.674Z,9.30
2017-11-23T01:31:23.179Z,7.70
2017-11-23T01:31:58.489Z,13.90
2017-11-23T01:32:33.767Z,8.70
2017-11-23T01:33:09.275Z,7.50
2017-11-23T01:33:44.447Z,8.20
2017-11-23T01:34:19.760Z,12.60
2017-11-23T01:34:54.929Z,10.80
2017-11-23T01:35:30.334Z,11.20
2017-11-23T01:36:05.622Z,9.10
2017-11-23T01:36:40.855Z,9.10
2017-11-23T01:37:16.126Z,7.50
2017-11-23T01:37:51.431Z,7.90
2017-11-23T01:38:26.811Z,6.90
2017-11-23T01:39:02.017Z,7.60
2017-11-23T01:39:37.207Z,7.80
2017-11-23T01:40:12.714Z,8.70
2017-11-23T01:40:47.892Z,9.70
2017-11-23T01:41:23.102Z,12.40
2017-11-23T01:41:58.500Z,12.00
2017-11-23T01:42:33.906Z,10.00
2017-11-23T01:43:09.182Z,11.10
2017-11-23T01:43:44.588Z,11.30
2017-11-23T01:44:20.270Z,10.30
2017-11-23T01:44:55.775Z,11.90
2017-11-23T01:45:31.055Z,11.20
2017-11-23T01:46:06.371Z,8.90
2017-11-23T01:46:41.569Z,9.90
2017-11-23T01:47:16.923Z,10.70
2017-11-23T01:47:52.224Z,9.90
2017-11-23T01:48:27.657Z,10.40
2017-11-23T01:49:03.057Z,11.80
2017-11-23T01:49:38.907Z,11.50
2017-11-23T01:50:14.086Z,9.70
2017-11-23T01:50:49.336Z,8.90
2017-11-23T01:51:24.837Z,10.80
2017-11-23T01:52:00.365Z,8.80
2017-11-23T01:52:35.696Z,8.20
2017-11-23T01:53:11.022Z,9.00
2017-11-23T01:53:46.832Z,9.80
2017-11-23T01:54:22.161Z,7.90
2017-11-23T01:54:57.462Z,7.50
2017-11-23T01:55:32.892Z,8.10
2017-11-23T01:56:08.089Z,8.80
2017-11-23T01:56:43.218Z,7.90
2017-11-23T01:57:18.424Z,7.80
2017-11-23T01:57:54.187Z,6.40
2017-11-23T01:58:29.579Z,8.30
2017-11-23T01:59:04.807Z,8.90
2017-11-23T01:59:39.910Z,9.50
2017-11-23T02:00:15.141Z,8.30
2017-11-23T02:00:50.241Z,9.00
2017-11-23T02:01:25.665Z,8.70
2017-11-23T02:02:01.173Z,6.90
2017-11-23T02:02:36.499Z,9.10
2017-11-23T02:03:12.031Z,9.90
2017-11-23T02:03:47.260Z,6.90
2017-11-23T02:04:22.457Z,7.10
2017-11-23T02:04:57.992Z,6.50
2017-11-23T02:05:33.089Z,8.10
2017-11-23T02:06:08.522Z,11.10
2017-11-23T02:06:44.020Z,11.40
2017-11-23T02:07:19.251Z,16.10
2017-11-23T02:07:54.650Z,14.30
2017-11-23T02:08:30.008Z,8.80
2017-11-23T02:09:05.519Z,9.10
2017-11-23T02:09:40.945Z,9.50
2017-11-23T02:10:16.364Z,9.70
2017-11-23T02:10:51.795Z,8.80
2017-11-23T02:11:27.095Z,9.20
2017-11-23T02:12:02.222Z,10.10
2017-11-23T02:12:37.423Z,7.70
2017-11-23T02:13:12.864Z,6.70
2017-11-23T02:13:48.186Z,6.70
2017-11-23T02:14:23.816Z,8.80
2017-11-23T02:14:58.917Z,9.50
2017-11-23T02:15:34.049Z,8.60
2017-11-23T02:16:09.459Z,9.40
2017-11-23T02:16:44.780Z,7.10
2017-11-23T02:17:20.087Z,7.90
2017-11-23T02:17:55.517Z,8.60
2017-11-23T02:18:30.799Z,7.70
2017-11-23T02:19:05.961Z,8.80
2017-11-23T02:19:41.712Z,8.60
2017-11-23T02:20:16.715Z,8.00
2017-11-23T02:20:52.091Z,7.80
2017-11-23T02:21:27.408Z,11.40
2017-11-23T02:22:02.686Z,9.40
2017-11-23T02:22:37.798Z,9.30
2017-11-23T02:23:12.974Z,9.10
2017-11-23T02:23:48.297Z,7.70
2017-11-23T02:24:23.397Z,7.40
2017-11-23T02:24:58.510Z,13.30
2017-11-23T02:25:33.884Z,13.00
2017-11-23T02:26:09.189Z,11.60
2017-11-23T02:26:44.469Z,10.80
2017-11-23T02:27:19.474Z,9.50
2017-11-23T02:27:55.055Z,8.90
2017-11-23T02:28:30.373Z,9.90
2017-11-23T02:29:05.466Z,10.80
2017-11-23T02:29:40.608Z,9.70
2017-11-23T02:30:15.890Z,8.60
2017-11-23T02:30:51.508Z,7.50
2017-11-23T02:31:26.884Z,9.50
2017-11-23T02:32:01.993Z,10.30
2017-11-23T02:32:37.268Z,8.80
2017-11-23T02:33:12.672Z,8.80
2017-11-23T02:33:47.751Z,6.60
2017-11-23T02:34:23.156Z,7.50
2017-11-23T02:34:58.466Z,8.00
2017-11-23T02:35:33.764Z,9.40
2017-11-23T02:36:08.941Z,12.20
2017-11-23T02:36:44.149Z,8.70
2017-11-23T02:37:19.325Z,7.40
2017-11-23T02:37:54.733Z,9.80
2017-11-23T02:38:29.610Z,6.40
2017-11-23T02:39:05.225Z,9.40
2017-11-23T02:39:40.197Z,9.10
2017-11-23T02:40:15.330Z,9.30
2017-11-23T02:40:50.504Z,10.20
2017-11-23T02:41:25.916Z,12.10
2017-11-23T02:42:01.392Z,13.50
2017-11-23T02:42:36.504Z,12.40
2017-11-23T02:43:11.590Z,9.30
2017-11-23T02:43:46.892Z,10.20
2017-11-23T02:44:22.068Z,13.70
2017-11-23T02:44:57.388Z,10.90
2017-11-23T02:45:32.596Z,8.40
2017-11-23T02:46:08.210Z,8.20
2017-11-23T02:46:43.389Z,8.30
2017-11-23T02:47:18.699Z,8.30
2017-11-23T02:47:54.084Z,7.90
2017-11-23T02:48:29.472Z,11.10
2017-11-23T02:49:05.055Z,10.20
2017-11-23T02:49:40.363Z,8.40
2017-11-23T02:50:15.672Z,10.40
2017-11-23T02:50:50.897Z,9.10
2017-11-23T02:51:26.184Z,12.70
2017-11-23T02:52:01.710Z,12.70
2017-11-23T02:52:36.887Z,8.40
2017-11-23T02:53:12.294Z,7.10
2017-11-23T02:53:47.472Z,8.90
2017-11-23T02:54:22.683Z,13.20
2017-11-23T02:54:58.058Z,14.40
2017-11-23T02:55:33.270Z,9.20
2017-11-23T02:56:08.579Z,9.10
2017-11-23T02:56:44.080Z,10.60
2017-11-23T02:57:19.157Z,10.00
2017-11-23T02:57:54.667Z,7.10
2017-11-23T02:58:29.845Z,7.90
2017-11-23T02:59:04.853Z,8.30
2017-11-23T02:59:40.134Z,10.30
2017-11-23T03:00:15.135Z,10.90
2017-11-23T03:00:50.420Z,11.40
2017-11-23T03:01:25.759Z,13.00
2017-11-23T03:02:01.039Z,14.30
2017-11-23T03:02:36.344Z,11.80
2017-11-23T03:03:12.016Z,8.50
2017-11-23T03:03:47.222Z,7.30
2017-11-23T03:04:22.394Z,8.40
2017-11-23T03:04:57.798Z,8.80
2017-11-23T03:05:33.276Z,11.30
2017-11-23T03:06:08.483Z,12.40
2017-11-23T03:06:44.093Z,9.10
2017-11-23T03:07:19.608Z,9.00
2017-11-23T03:07:55.186Z,9.30
2017-11-23T03:08:30.690Z,13.50
2017-11-23T03:09:05.774Z,12.00
2017-11-23T03:09:40.896Z,13.20
2017-11-23T03:10:16.174Z,11.90
2017-11-23T03:10:51.485Z,14.90
2017-11-23T03:11:26.862Z,14.60
2017-11-23T03:12:02.199Z,12.60
2017-11-23T03:12:37.481Z,13.40
2017-11-23T03:13:12.589Z,11.50
2017-11-23T03:13:48.071Z,9.50
2017-11-23T03:14:23.479Z,11.00
2017-11-23T03:14:58.666Z,9.70
2017-11-23T03:15:33.982Z,11.40
2017-11-23T03:16:09.658Z,11.10
2017-11-23T03:16:44.869Z,9.50
2017-11-23T03:17:20.076Z,11.90
2017-11-23T03:17:55.298Z,13.10
2017-11-23T03:18:30.869Z,9.80
2017-11-23T03:19:06.573Z,7.00
2017-11-23T03:19:42.089Z,7.80
2017-11-23T03:20:17.160Z,11.60
2017-11-23T03:20:52.436Z,12.80
2017-11-23T03:21:27.542Z,12.20
2017-11-23T03:22:02.827Z,11.50
2017-11-23T03:22:38.057Z,13.10
2017-11-23T03:23:13.342Z,10.50
2017-11-23T03:23:48.645Z,11.70
2017-11-23T03:24:24.227Z,10.50
2017-11-23T03:24:59.228Z,13.40
2017-11-23T03:25:34.210Z,10.10
2017-11-23T03:26:09.614Z,12.40
2017-11-23T03:26:45.099Z,10.20
2017-11-23T03:27:20.607Z,9.90
2017-11-23T03:27:56.316Z,11.20
2017-11-23T03:28:31.527Z,14.60
2017-11-23T03:29:07.304Z,10.10
2017-11-23T03:29:43.014Z,9.90
2017-11-23T03:30:18.355Z,14.40
2017-11-23T03:30:53.453Z,12.60
2017-11-23T03:31:28.533Z,12.60
2017-11-23T03:32:03.737Z,8.90
2017-11-23T03:32:39.019Z,10.90
2017-11-23T03:33:14.259Z,13.90
2017-11-23T03:33:49.438Z,12.20
2017-11-23T03:34:24.541Z,11.40
2017-11-23T03:34:59.929Z,10.10
2017-11-23T03:35:35.141Z,12.50
2017-11-23T03:36:10.422Z,11.40
2017-11-23T03:36:46.133Z,11.10
2017-11-23T03:37:21.404Z,10.10
2017-11-23T03:37:57.011Z,9.40
2017-11-23T03:38:32.218Z,11.40
2017-11-23T03:39:07.532Z,10.30
2017-11-23T03:39:42.605Z,11.00
2017-11-23T03:40:17.909Z,12.60
2017-11-23T03:40:53.190Z,11.80
2017-11-23T03:41:28.601Z,10.20
2017-11-23T03:42:04.181Z,8.60
2017-11-23T03:42:39.290Z,10.20
2017-11-23T03:43:14.668Z,9.30
2017-11-23T03:43:50.007Z,8.80
2017-11-23T03:44:25.281Z,11.40
2017-11-23T03:45:00.590Z,10.00
2017-11-23T03:45:36.064Z,11.90
2017-11-23T03:46:11.779Z,10.90
2017-11-23T03:46:47.054Z,8.20
2017-11-23T03:47:22.357Z,10.50
2017-11-23T03:47:57.737Z,9.50
2017-11-23T03:48:32.940Z,11.00
2017-11-23T03:49:08.250Z,9.80
2017-11-23T03:49:43.459Z,10.10
2017-11-23T03:50:18.635Z,12.80
2017-11-23T03:50:53.642Z,10.30
2017-11-23T03:51:28.720Z,8.50
2017-11-23T03:52:04.029Z,9.30
2017-11-23T03:52:39.410Z,12.00
2017-11-23T03:53:14.724Z,10.80
2017-11-23T03:53:50.196Z,10.00
2017-11-23T03:54:25.962Z,9.10
2017-11-23T03:55:01.021Z,11.30
2017-11-23T03:55:36.532Z,9.90
2017-11-23T03:56:11.811Z,9.50
2017-11-23T03:56:47.015Z,10.80
2017-11-23T03:57:22.296Z,17.00
2017-11-23T03:57:57.307Z,13.80
2017-11-23T03:58:32.784Z,14.50
2017-11-23T03:59:08.189Z,14.00
2017-11-23T03:59:43.594Z,9.80
2017-11-23T04:00:18.804Z,9.80
2017-11-23T04:00:54.089Z,9.80
2017-11-23T04:01:29.399Z,11.30
2017-11-23T04:02:04.776Z,11.20
2017-11-23T04:02:40.187Z,13.60
2017-11-23T04:03:15.456Z,14.10
2017-11-23T04:03:50.868Z,10.90
2017-11-23T04:04:26.047Z,12.60
2017-11-23T04:05:01.383Z,12.70
2017-11-23T04:05:36.566Z,11.80
2017-11-23T04:06:11.875Z,17.20
2017-11-23T04:06:47.462Z,10.10
2017-11-23T04:07:22.870Z,9.90
2017-11-23T04:07:58.369Z,11.10
2017-11-23T04:08:33.678Z,11.80
2017-11-23T04:09:08.773Z,9.70
2017-11-23T04:09:44.368Z,9.50
2017-11-23T04:10:19.472Z,9.50
2017-11-23T04:10:54.578Z,7.90
2017-11-23T04:11:29.862Z,9.30
2017-11-23T04:12:05.174Z,12.70
2017-11-23T04:12:40.456Z,12.80
2017-11-23T04:13:16.064Z,10.40
2017-11-23T04:13:51.246Z,10.40
2017-11-23T04:14:26.550Z,11.20
2017-11-23T04:15:01.731Z,12.80
2017-11-23T04:15:36.969Z,10.40
2017-11-23T04:16:12.449Z,10.90
2017-11-23T04:16:47.659Z,9.90
2017-11-23T04:17:22.736Z,10.90
2017-11-23T04:17:58.145Z,11.30
2017-11-23T04:18:33.322Z,11.80
2017-11-23T04:19:08.728Z,10.50
2017-11-23T04:19:44.000Z,8.50
2017-11-23T04:20:19.404Z,9.60
2017-11-23T04:20:54.816Z,9.60
2017-11-23T04:21:30.018Z,13.00
2017-11-23T04:22:05.199Z,12.20
2017-11-23T04:22:40.703Z,12.60
2017-11-23T04:23:15.889Z,9.90
2017-11-23T04:23:50.996Z,9.70
2017-11-23T04:24:26.580Z,12.60
2017-11-23T04:25:01.909Z,11.10
2017-11-23T04:25:37.173Z,11.20
2017-11-23T04:26:12.711Z,11.30
2017-11-23T04:26:47.890Z,11.50
2017-11-23T04:27:23.499Z,8.30
2017-11-23T04:27:58.578Z,9.60
2017-11-23T04:28:34.184Z,12.50
2017-11-23T04:29:09.271Z,9.50
2017-11-23T04:29:44.876Z,10.30
2017-11-23T04:30:20.155Z,11.00
2017-11-23T04:30:55.361Z,9.80
2017-11-23T04:31:30.862Z,16.50
2017-11-23T04:32:06.000Z,15.70
2017-11-23T04:32:41.384Z,9.70
2017-11-23T04:33:16.594Z,9.70
2017-11-23T04:33:51.675Z,8.70
2017-11-23T04:34:26.984Z,8.80
2017-11-23T04:35:02.363Z,12.70
2017-11-23T04:35:37.571Z,15.90
2017-11-23T04:36:13.052Z,13.30
2017-11-23T04:36:48.399Z,9.50
2017-11-23T04:37:24.074Z,9.10
2017-11-23T04:37:59.779Z,11.40
2017-11-23T04:38:35.159Z,14.10
2017-11-23T04:39:10.464Z,11.10
2017-11-23T04:39:45.851Z,10.20
2017-11-23T04:40:21.059Z,9.40
2017-11-23T04:40:56.834Z,9.20
2017-11-23T04:41:31.948Z,10.30
2017-11-23T04:42:07.152Z,7.80
2017-11-23T04:42:42.664Z,10.40
2017-11-23T04:43:17.943Z,13.70
2017-11-23T04:43:53.148Z,12.00
2017-11-23T04:44:28.443Z,11.30
2017-11-23T04:45:03.947Z,11.60
2017-11-23T04:45:39.538Z,8.70
2017-11-23T04:46:14.837Z,12.60
2017-11-23T04:46:50.021Z,11.40
2017-11-23T04:47:25.250Z,10.10
2017-11-23T04:48:00.430Z,9.30
2017-11-23T04:48:35.837Z,9.20
2017-11-23T04:49:11.116Z,11.60
2017-11-23T04:49:46.623Z,9.80
2017-11-23T04:50:21.702Z,10.30
2017-11-23T04:50:57.108Z,8.70
2017-11-23T04:51:32.105Z,13.00
2017-11-23T04:52:07.286Z,14.20
2017-11-23T04:52:42.594Z,11.90
2017-11-23T04:53:17.594Z,12.70
2017-11-23T04:53:52.972Z,11.30
2017-11-23T04:54:28.077Z,9.00
2017-11-23T04:55:03.552Z,9.60
2017-11-23T04:55:38.962Z,10.60
2017-11-23T04:56:14.449Z,10.90
2017-11-23T04:56:49.773Z,11.60
2017-11-23T04:57:24.973Z,14.10
2017-11-23T04:58:00.533Z,14.30
2017-11-23T04:58:35.843Z,8.00
2017-11-23T04:59:11.386Z,8.70
2017-11-23T04:59:46.679Z,11.80
2017-11-23T05:00:22.215Z,10.80
2017-11-23T05:00:57.713Z,9.50
2017-11-23T05:01:33.150Z,9.00
2017-11-23T05:02:08.567Z,8.90
2017-11-23T05:02:43.597Z,10.50
2017-11-23T05:03:18.722Z,10.00
2017-11-23T05:03:54.146Z,10.00
2017-11-23T05:04:29.523Z,10.90
2017-11-23T05:05:05.129Z,13.50
2017-11-23T05:05:40.406Z,14.00
2017-11-23T05:06:15.819Z,14.50
2017-11-23T05:06:50.885Z,13.00
2017-11-23T05:07:26.291Z,14.10
2017-11-23T05:08:01.465Z,12.30
2017-11-23T05:08:36.503Z,10.70
2017-11-23T05:09:11.781Z,9.20
2017-11-23T05:09:47.091Z,12.40
2017-11-23T05:10:22.372Z,11.40
2017-11-23T05:10:57.383Z,11.90
2017-11-23T05:11:32.666Z,14.60
2017-11-23T05:12:07.672Z,14.50
2017-11-23T05:12:42.746Z,12.60
2017-11-23T05:13:18.145Z,9.60
2017-11-23T05:13:53.750Z,14.20
2017-11-23T05:14:29.160Z,11.40
2017-11-23T05:15:04.840Z,12.80
2017-11-23T05:15:40.250Z,13.20
2017-11-23T05:16:15.624Z,13.90
2017-11-23T05:16:50.940Z,12.50
2017-11-23T05:17:26.217Z,9.50
2017-11-23T05:18:01.524Z,10.10
2017-11-23T05:18:36.839Z,17.10
2017-11-23T05:19:12.145Z,17.10
2017-11-23T05:19:47.522Z,11.40
2017-11-23T05:20:22.930Z,10.80
2017-11-23T05:20:58.305Z,15.00
2017-11-23T05:21:33.721Z,14.20
2017-11-23T05:22:08.995Z,9.70
2017-11-23T05:22:44.610Z,12.60
2017-11-23T05:23:19.783Z,13.90
2017-11-23T05:23:55.020Z,11.00
2017-11-23T05:24:30.496Z,11.30
2017-11-23T05:25:05.605Z,12.00
2017-11-23T05:25:40.881Z,14.20
2017-11-23T05:26:16.188Z,12.30
2017-11-23T05:26:51.672Z,12.10
2017-11-23T05:27:27.082Z,11.00
2017-11-23T05:28:02.072Z,8.00
2017-11-23T05:28:37.277Z,9.50
2017-11-23T05:29:12.390Z,12.10
2017-11-23T05:29:47.696Z,11.30
2017-11-23T05:30:22.772Z,12.50
2017-11-23T05:30:58.180Z,10.00
2017-11-23T05:31:33.556Z,11.10
2017-11-23T05:32:08.566Z,12.50
2017-11-23T05:32:43.844Z,12.40
2017-11-23T05:33:19.054Z,11.60
2017-11-23T05:33:53.930Z,13.50
2017-11-23T05:34:29.363Z,12.30
2017-11-23T05:35:04.843Z,15.20
2017-11-23T05:35:40.247Z,12.30
2017-11-23T05:36:15.326Z,10.90
2017-11-23T05:36:51.027Z,10.70
2017-11-23T05:37:26.504Z,11.40
2017-11-23T05:38:01.805Z,13.30
2017-11-23T05:38:36.996Z,13.10
2017-11-23T05:39:12.404Z,13.80
2017-11-23T05:39:47.802Z,12.90
2017-11-23T05:40:23.117Z,11.10
2017-11-23T05:40:58.288Z,11.60
2017-11-23T05:41:33.592Z,11.90
2017-11-23T05:42:08.994Z,9.50
2017-11-23T05:42:44.221Z,12.10
2017-11-23T05:43:19.601Z,10.60
2017-11-23T05:43:55.207Z,10.90
2017-11-23T05:44:30.384Z,13.70
2017-11-23T05:45:05.829Z,15.70
2017-11-23T05:45:40.892Z,15.30
2017-11-23T05:46:15.997Z,10.60
2017-11-23T05:46:51.272Z,11.30
2017-11-23T05:47:26.982Z,15.00
2017-11-23T05:48:02.065Z,14.90
2017-11-23T05:48:37.476Z,14.50
2017-11-23T05:49:12.648Z,16.60
2017-11-23T05:49:48.061Z,14.10
2017-11-23T05:50:23.462Z,15.40
2017-11-23T05:50:58.767Z,16.80
2017-11-23T05:51:34.057Z,18.40
2017-11-23T05:52:09.357Z,15.90
2017-11-23T05:52:44.336Z,14.10
2017-11-23T05:53:19.545Z,12.20
2017-11-23T05:53:54.829Z,11.80
2017-11-23T05:54:30.132Z,11.20
2017-11-23T05:55:05.412Z,12.20
2017-11-23T05:55:41.056Z,15.10
2017-11-23T05:56:16.235Z,18.40
2017-11-23T05:56:51.550Z,14.40
2017-11-23T05:57:26.918Z,12.50
2017-11-23T05:58:02.440Z,12.20
2017-11-23T05:58:37.823Z,12.40
2017-11-23T05:59:13.336Z,14.60
2017-11-23T05:59:48.823Z,13.10
2017-11-23T06:00:24.138Z,11.70
2017-11-23T06:00:59.657Z,11.20
2017-11-23T06:01:35.069Z,11.30
2017-11-23T06:02:10.460Z,15.00
2017-11-23T06:02:45.673Z,16.30
2017-11-23T06:03:20.858Z,15.20
2017-11-23T06:03:56.379Z,13.10
2017-11-23T06:04:31.368Z,14.50
2017-11-23T06:05:06.782Z,16.80
2017-11-23T06:05:41.759Z,14.70
2017-11-23T06:06:17.108Z,14.80
2017-11-23T06:06:52.086Z,16.60
2017-11-23T06:07:27.401Z,17.10
2017-11-23T06:08:02.789Z,13.10
2017-11-23T06:08:38.101Z,12.30
2017-11-23T06:09:13.392Z,14.60
2017-11-23T06:09:49.098Z,17.60
2017-11-23T06:10:24.583Z,15.90
2017-11-23T06:10:59.795Z,17.70
2017-11-23T06:11:35.113Z,17.30
2017-11-23T06:12:10.424Z,12.10
2017-11-23T06:12:45.706Z,14.20
2017-11-23T06:13:21.025Z,20.40
2017-11-23T06:13:56.208Z,19.80
2017-11-23T06:14:31.420Z,12.10
2017-11-23T06:15:06.896Z,15.00
2017-11-23T06:15:42.111Z,14.80
2017-11-23T06:16:17.497Z,13.30
2017-11-23T06:16:52.730Z,15.40
2017-11-23T06:17:27.919Z,13.50
2017-11-23T06:18:03.336Z,18.70
2017-11-23T06:18:38.934Z,19.90
2017-11-23T06:19:14.349Z,17.80
2017-11-23T06:19:49.530Z,15.20
2017-11-23T06:20:25.245Z,14.60
2017-11-23T06:21:00.624Z,14.30
2017-11-23T06:21:35.945Z,14.70
2017-11-23T06:22:11.660Z,14.50
2017-11-23T06:22:47.071Z,14.50
2017-11-23T06:23:22.264Z,17.50
2017-11-23T06:23:57.685Z,17.80
2017-11-23T06:24:32.769Z,17.20
2017-11-23T06:25:08.085Z,15.50
2017-11-23T06:25:43.275Z,16.30
2017-11-23T06:26:18.989Z,15.70
2017-11-23T06:26:54.269Z,19.00
2017-11-23T06:27:29.609Z,16.00
2017-11-23T06:28:04.892Z,22.40
2017-11-23T06:28:40.209Z,19.80
2017-11-23T06:29:15.597Z,13.40
2017-11-23T06:29:51.014Z,13.50
2017-11-23T06:30:26.497Z,14.40
2017-11-23T06:31:03.103Z,18.70
2017-11-23T06:31:38.495Z,16.80
2017-11-23T06:32:13.711Z,15.60
2017-11-23T06:32:49.026Z,16.70
2017-11-23T06:33:24.345Z,11.20
2017-11-23T06:33:59.531Z,12.50
2017-11-23T06:34:34.851Z,14.80
2017-11-23T06:35:10.328Z,11.70
2017-11-23T06:35:45.951Z,15.30
2017-11-23T06:36:21.419Z,14.00
2017-11-23T06:36:56.644Z,16.20
2017-11-23T06:37:31.929Z,18.90
2017-11-23T06:38:07.297Z,10.90
2017-11-23T06:38:42.696Z,11.70
2017-11-23T06:39:18.017Z,10.20
2017-11-23T06:39:53.299Z,13.00
2017-11-23T06:40:28.614Z,17.30
2017-11-23T06:41:03.816Z,18.30
2017-11-23T06:41:39.124Z,15.40
2017-11-23T06:42:14.409Z,13.10
2017-11-23T06:42:49.927Z,14.90
2017-11-23T06:43:25.142Z,16.30
2017-11-23T06:44:00.762Z,14.80
2017-11-23T06:44:36.146Z,11.70
2017-11-23T06:45:11.465Z,12.30
2017-11-23T06:45:46.646Z,19.10
2017-11-23T06:46:21.965Z,22.80
2017-11-23T06:46:57.257Z,16.40
2017-11-23T06:47:32.473Z,15.70
2017-11-23T06:48:07.961Z,19.50
2017-11-23T06:48:43.199Z,17.50
2017-11-23T06:49:18.192Z,14.80
2017-11-23T06:49:53.905Z,13.30
2017-11-23T06:50:28.988Z,13.60
2017-11-23T06:51:04.396Z,17.30
2017-11-23T06:51:39.689Z,16.80
2017-11-23T06:52:15.002Z,16.70
2017-11-23T06:52:50.285Z,13.90
2017-11-23T06:53:25.708Z,14.00
2017-11-23T06:54:01.212Z,11.70
2017-11-23T06:54:36.604Z,18.40
2017-11-23T06:55:11.989Z,15.40
2017-11-23T06:55:47.396Z,13.80
2017-11-23T06:56:22.793Z,15.70
2017-11-23T06:56:58.009Z,19.20
2017-11-23T06:57:33.396Z,13.80
2017-11-23T06:58:08.805Z,12.20
2017-11-23T06:58:44.301Z,14.50
2017-11-23T06:59:19.837Z,13.70
2017-11-23T06:59:55.330Z,11.20
2017-11-23T07:00:34.042Z,13.20
2017-11-23T07:01:09.338Z,16.40
2017-11-23T07:01:44.768Z,14.70
2017-11-23T07:02:20.655Z,17.50
2017-11-23T07:02:56.000Z,16.40
2017-11-23T07:03:31.620Z,14.40
2017-11-23T07:04:06.933Z,10.20
2017-11-23T07:04:42.255Z,12.10
2017-11-23T07:05:17.768Z,13.80
2017-11-23T07:05:52.963Z,13.20
2017-11-23T07:06:28.472Z,12.50
2017-11-23T07:07:03.955Z,12.00
2017-11-23T07:07:39.262Z,14.80
2017-11-23T07:08:14.563Z,17.50
2017-11-23T07:08:49.785Z,20.80
2017-11-23T07:09:25.028Z,17.30
2017-11-23T07:10:00.379Z,10.10
2017-11-23T07:10:35.760Z,9.70
2017-11-23T07:11:11.081Z,15.50
2017-11-23T07:11:46.385Z,15.90
2017-11-23T07:12:21.901Z,13.20
2017-11-23T07:12:57.684Z,18.20
2017-11-23T07:13:32.803Z,18.30
2017-11-23T07:14:07.990Z,9.40
2017-11-23T07:14:43.209Z,10.70
2017-11-23T07:15:18.414Z,15.00
2017-11-23T07:15:53.838Z,13.90
2017-11-23T07:16:29.520Z,11.40
2017-11-23T07:17:05.134Z,13.50
2017-11-23T07:17:40.417Z,12.30
2017-11-23T07:18:15.540Z,13.20
2017-11-23T07:18:50.942Z,11.70
2017-11-23T07:19:26.223Z,13.20
2017-11-23T07:20:01.329Z,17.90
2017-11-23T07:20:36.972Z,16.20
2017-11-23T07:21:12.261Z,11.90
2017-11-23T07:21:47.695Z,11.80
2017-11-23T07:22:23.188Z,11.50
2017-11-23T07:22:58.603Z,14.30
2017-11-23T07:23:34.085Z,15.20
2017-11-23T07:24:09.401Z,12.10
2017-11-23T07:24:44.790Z,12.80
2017-11-23T07:25:20.002Z,9.40
2017-11-23T07:25:55.413Z,10.00
2017-11-23T07:26:30.835Z,10.20
2017-11-23T07:27:06.023Z,17.70
2017-11-23T07:27:41.540Z,14.80
2017-11-23T07:28:16.725Z,11.10
2017-11-23T07:28:51.745Z,14.10
2017-11-23T07:29:26.928Z,12.70
2017-11-23T07:30:02.340Z,13.10
2017-11-23T07:30:37.626Z,13.50
2017-11-23T07:31:13.264Z,11.20
2017-11-23T07:31:48.755Z,15.70
2017-11-23T07:32:24.168Z,16.10
2017-11-23T07:32:59.553Z,10.60
2017-11-23T07:33:35.175Z,16.90
2017-11-23T07:34:10.760Z,17.10
2017-11-23T07:34:46.379Z,11.60
2017-11-23T07:35:21.862Z,10.50
2017-11-23T07:35:57.321Z,19.00
2017-11-23T07:36:32.895Z,21.00
2017-11-23T07:37:08.317Z,14.10
2017-11-23T07:37:43.608Z,16.20
2017-11-23T07:38:18.721Z,19.00
2017-11-23T07:38:54.017Z,16.10
2017-11-23T07:39:29.529Z,13.30